createdAt,value
2022-10-13T00:01:18.914Z,12.20
2022-10-13T00:04:04.717Z,12.18
2022-10-13T00:06:50.931Z,9.30
2022-10-13T00:09:37.480Z,13.52
2022-10-13T00:12:23.549Z,12.57
2022-10-13T00:15:10.078Z,12.70
2022-10-13T00:17:56.170Z,12.57
2022-10-13T00:20:47.890Z,10.07
2022-10-13T00:23:34.968Z,8.95
2022-10-13T00:26:23.921Z,9.52
2022-10-13T00:29:09.913Z,10.93
2022-10-13T00:31:55.981Z,11.38
2022-10-13T00:34:41.948Z,12.47
2022-10-13T00:37:27.942Z,11.75
2022-10-13T00:40:13.933Z,11.70
2022-10-13T00:43:00.095Z,11.80
2022-10-13T00:45:49.831Z,12.30
2022-10-13T00:48:35.822Z,12.38
2022-10-13T00:51:25.169Z,11.68
2022-10-13T00:54:17.158Z,10.98
2022-10-13T00:57:06.136Z,11.00
2022-10-13T00:59:52.406Z,11.13
2022-10-13T01:02:38.957Z,8.93
2022-10-13T01:05:25.833Z,13.50
2022-10-13T01:08:16.308Z,12.75
2022-10-13T01:11:20.822Z,12.60
2022-10-13T01:14:26.309Z,11.98
2022-10-13T01:17:25.945Z,12.88
2022-10-13T01:20:17.702Z,12.05
2022-10-13T01:23:26.018Z,12.27
2022-10-13T01:26:46.973Z,12.18
2022-10-13T01:29:48.085Z,13.05
2022-10-13T01:32:46.232Z,12.50
2022-10-13T01:35:44.370Z,11.85
2022-10-13T01:38:56.877Z,12.18
2022-10-13T01:41:51.268Z,12.05
2022-10-13T01:44:45.853Z,11.27
2022-10-13T01:47:35.277Z,11.73
2022-10-13T01:50:23.186Z,11.25
2022-10-13T01:53:11.514Z,12.43
2022-10-13T01:56:00.219Z,13.25
2022-10-13T01:58:49.567Z,11.43
2022-10-13T02:01:41.412Z,11.80
2022-10-13T02:04:39.041Z,11.38
2022-10-13T02:07:53.856Z,10.30
2022-10-13T02:10:58.797Z,10.90
2022-10-13T02:14:16.712Z,10.68
2022-10-13T02:17:05.224Z,10.63
2022-10-13T02:19:53.577Z,9.82
2022-10-13T02:22:47.361Z,10.73
2022-10-13T02:25:34.338Z,10.27
2022-10-13T02:28:21.393Z,10.88
2022-10-13T02:31:09.322Z,12.80
2022-10-13T02:33:55.278Z,13.07
2022-10-13T02:36:41.238Z,12.83
2022-10-13T02:39:27.226Z,13.07
2022-10-13T02:42:13.104Z,13.60
2022-10-13T02:44:59.093Z,14.27
2022-10-13T02:47:45.840Z,14.70
2022-10-13T02:50:32.085Z,13.23
2022-10-13T02:53:18.117Z,12.90
2022-10-13T02:56:04.086Z,12.47
2022-10-13T02:58:51.003Z,12.25
2022-10-13T03:01:41.250Z,12.13
2022-10-13T03:04:27.489Z,11.35
2022-10-13T03:07:13.906Z,12.38
2022-10-13T03:09:59.959Z,12.38
2022-10-13T03:12:46.039Z,12.38
2022-10-13T03:15:31.995Z,11.63
2022-10-13T03:18:18.443Z,12.43
2022-10-13T03:21:06.550Z,12.13
2022-10-13T03:23:53.010Z,12.63
2022-10-13T03:26:40.677Z,13.75
2022-10-13T03:29:26.936Z,9.27
2022-10-13T03:32:13.645Z,13.40
2022-10-13T03:35:00.291Z,12.48
2022-10-13T03:37:46.405Z,12.25
2022-10-13T03:40:32.613Z,13.00
2022-10-13T03:43:18.907Z,12.07
2022-10-13T03:46:07.130Z,11.75
2022-10-13T03:48:53.032Z,11.52
2022-10-13T03:51:39.164Z,12.20
2022-10-13T03:54:25.346Z,9.02
2022-10-13T03:57:12.525Z,13.10
2022-10-13T03:59:58.881Z,12.37
2022-10-13T04:02:49.448Z,12.82
2022-10-13T04:05:35.344Z,11.63
2022-10-13T04:08:21.233Z,10.73
2022-10-13T04:11:10.661Z,12.40
2022-10-13T04:14:00.029Z,10.73
2022-10-13T04:16:47.084Z,12.15
2022-10-13T04:19:33.182Z,11.30
2022-10-13T04:22:24.826Z,10.32
2022-10-13T04:25:10.938Z,10.88
2022-10-13T04:27:57.038Z,11.20
2022-10-13T04:30:45.852Z,10.70
2022-10-13T04:33:35.033Z,9.98
2022-10-13T04:36:21.333Z,10.20
2022-10-13T04:39:09.317Z,10.90
2022-10-13T04:41:55.787Z,10.30
2022-10-13T04:44:42.145Z,11.52
2022-10-13T04:47:36.124Z,10.20
2022-10-13T04:50:23.159Z,10.57
2022-10-13T04:53:19.280Z,10.07
2022-10-13T04:56:08.533Z,10.20
2022-10-13T04:58:54.853Z,9.75
2022-10-13T05:01:41.217Z,9.63
2022-10-13T05:04:32.694Z,10.38
2022-10-13T05:07:18.949Z,9.83
2022-10-13T05:10:06.151Z,9.82
2022-10-13T05:12:53.752Z,9.23
2022-10-13T05:15:39.721Z,10.52
2022-10-13T05:18:25.778Z,10.95
2022-10-13T05:21:13.583Z,10.45
2022-10-13T05:24:00.115Z,11.65
2022-10-13T05:29:32.446Z,10.98
2022-10-13T05:32:19.066Z,11.88
2022-10-13T05:35:05.618Z,11.63
2022-10-13T05:37:51.878Z,10.77
2022-10-13T05:40:37.830Z,11.55
2022-10-13T05:43:24.834Z,10.65
2022-10-13T05:46:11.329Z,11.75
2022-10-13T05:48:58.765Z,11.40
2022-10-13T05:51:49.058Z,12.27
2022-10-13T05:54:41.279Z,12.32
2022-10-13T05:57:33.260Z,12.80
2022-10-13T06:00:20.026Z,13.18
2022-10-13T06:03:15.822Z,13.30
2022-10-13T06:06:03.401Z,12.68
2022-10-13T06:08:50.936Z,12.38
2022-10-13T06:11:36.886Z,12.88
2022-10-13T06:14:22.805Z,12.52
2022-10-13T06:17:09.132Z,13.20
2022-10-13T06:19:56.508Z,13.23
2022-10-13T06:22:42.532Z,13.77
2022-10-13T06:25:29.382Z,14.13
2022-10-13T06:28:16.570Z,13.40
2022-10-13T06:31:07.589Z,13.93
2022-10-13T06:33:53.682Z,13.82
2022-10-13T06:36:39.988Z,14.10
2022-10-13T06:39:26.519Z,14.73
2022-10-13T06:42:12.733Z,14.68
2022-10-13T06:45:01.301Z,14.38
2022-10-13T06:47:47.281Z,15.03
2022-10-13T06:50:33.580Z,14.20
2022-10-13T06:53:20.023Z,14.45
2022-10-13T06:56:07.130Z,15.00
2022-10-13T06:58:53.059Z,14.40
2022-10-13T07:01:41.705Z,14.82
2022-10-13T07:04:31.745Z,15.10
2022-10-13T07:07:18.400Z,15.45
2022-10-13T07:10:04.585Z,16.20
2022-10-13T07:12:50.964Z,15.40
2022-10-13T07:15:40.957Z,15.38
2022-10-13T07:18:27.168Z,15.50
2022-10-13T07:21:13.528Z,16.70
2022-10-13T07:23:59.542Z,15.97
2022-10-13T07:26:47.317Z,16.50
2022-10-13T07:29:33.391Z,17.13
2022-10-13T07:32:19.409Z,17.20
2022-10-13T07:35:05.680Z,17.77
2022-10-13T07:37:53.735Z,17.23
2022-10-13T07:40:39.939Z,17.30
2022-10-13T07:43:26.519Z,16.25
2022-10-13T07:46:14.845Z,17.63
2022-10-13T07:49:01.002Z,17.70
2022-10-13T07:51:46.889Z,17.97
2022-10-13T07:54:36.056Z,17.65
2022-10-13T07:57:22.236Z,17.33
2022-10-13T08:00:09.773Z,17.75
2022-10-13T08:02:58.688Z,17.00
2022-10-13T08:05:44.800Z,16.98
2022-10-13T08:08:31.612Z,12.80
2022-10-13T08:14:03.975Z,17.88
2022-10-13T08:16:52.987Z,18.10
2022-10-13T08:19:39.719Z,18.33
2022-10-13T08:22:28.432Z,18.98
2022-10-13T08:25:14.910Z,17.95
2022-10-13T08:28:00.990Z,18.13
2022-10-13T08:30:47.120Z,18.23
2022-10-13T08:33:33.331Z,17.70
2022-10-13T08:36:20.487Z,18.02
2022-10-13T08:39:07.397Z,17.48
2022-10-13T08:47:59.988Z,17.27
2022-10-13T08:50:51.492Z,17.10
2022-10-13T08:53:41.153Z,16.83
2022-10-13T08:56:31.991Z,15.82
2022-10-13T08:59:19.222Z,14.30
2022-10-13T09:02:14.734Z,15.20
2022-10-13T09:05:03.596Z,15.10
2022-10-13T09:07:51.576Z,14.27
2022-10-13T09:10:50.265Z,14.35
2022-10-13T09:13:38.569Z,15.23
2022-10-13T09:16:30.054Z,13.98
2022-10-13T09:19:28.550Z,15.18
2022-10-13T09:22:24.077Z,13.32
2022-10-13T09:25:36.393Z,13.90
2022-10-13T09:28:29.430Z,13.10
2022-10-13T09:31:25.102Z,12.55
2022-10-13T09:34:24.321Z,12.15
2022-10-13T09:37:23.817Z,11.10
2022-10-13T09:40:20.849Z,11.13
2022-10-13T09:43:27.969Z,10.00
2022-10-13T09:46:24.877Z,10.48
2022-10-13T09:49:28.891Z,10.68
2022-10-13T09:52:21.450Z,9.75
2022-10-13T09:55:32.316Z,9.60
2022-10-13T09:58:28.426Z,10.45
2022-10-13T10:01:24.121Z,10.20
2022-10-13T10:04:29.935Z,9.65
2022-10-13T10:07:21.838Z,10.23
2022-10-13T10:10:24.144Z,10.25
2022-10-13T10:13:12.357Z,10.23
2022-10-13T10:15:58.673Z,10.13
2022-10-13T10:18:47.666Z,9.83
2022-10-13T10:21:43.286Z,9.85
2022-10-13T10:25:04.744Z,10.05
2022-10-13T10:28:09.397Z,9.55
2022-10-13T10:31:10.731Z,10.23
2022-10-13T10:34:15.379Z,9.90
2022-10-13T10:37:21.260Z,10.77
2022-10-13T10:40:24.747Z,10.45
2022-10-13T10:43:28.240Z,10.57
2022-10-13T10:46:36.625Z,10.50
2022-10-13T10:49:31.551Z,9.88
2022-10-13T10:52:40.377Z,11.02
2022-10-13T10:55:32.377Z,10.25
2022-10-13T10:58:32.525Z,9.68
2022-10-13T11:02:17.363Z,9.45
2022-10-13T11:05:06.317Z,9.50
2022-10-13T11:07:52.777Z,11.02
2022-10-13T11:10:39.133Z,10.57
2022-10-13T11:13:25.934Z,9.82
2022-10-13T11:16:33.393Z,9.85
2022-10-13T11:19:35.985Z,9.10
2022-10-13T11:22:27.500Z,9.13
2022-10-13T11:25:39.975Z,10.48
2022-10-13T11:28:42.311Z,10.13
2022-10-13T11:31:48.387Z,9.77
2022-10-13T11:34:34.932Z,10.20
2022-10-13T11:37:20.942Z,9.40
2022-10-13T11:40:25.659Z,9.82
2022-10-13T11:43:36.235Z,9.32
2022-10-13T11:46:34.866Z,9.20
2022-10-13T11:49:51.541Z,8.48
2022-10-13T11:53:22.682Z,7.68
2022-10-13T11:56:20.496Z,8.35
2022-10-13T11:59:39.941Z,9.18
2022-10-13T12:02:27.694Z,9.60
2022-10-13T12:05:26.510Z,9.30
2022-10-13T12:08:12.446Z,8.35
2022-10-13T12:11:03.173Z,8.80
2022-10-13T12:13:49.693Z,7.60
2022-10-13T12:16:37.136Z,8.77
2022-10-13T12:19:27.677Z,8.27
2022-10-13T12:22:19.271Z,8.70
2022-10-13T12:25:25.419Z,8.55
2022-10-13T12:28:19.808Z,9.25
2022-10-13T12:31:26.570Z,7.90
2022-10-13T12:34:21.185Z,8.43
2022-10-13T12:37:23.395Z,7.80
2022-10-13T12:40:14.036Z,7.78
2022-10-13T12:43:01.171Z,7.68
2022-10-13T12:45:48.295Z,8.52
2022-10-13T12:48:38.181Z,7.60
2022-10-13T12:51:27.810Z,7.13
2022-10-13T12:54:27.266Z,7.32
2022-10-13T12:57:19.213Z,7.85
2022-10-13T13:00:22.490Z,7.40
2022-10-13T13:03:22.929Z,7.10
2022-10-13T13:06:15.026Z,7.53
2022-10-13T13:09:16.322Z,7.28
2022-10-13T13:12:22.963Z,8.20
2022-10-13T13:15:38.481Z,8.48
2022-10-13T13:18:27.458Z,7.78
2022-10-13T13:21:15.474Z,7.70
2022-10-13T13:24:04.208Z,7.38
2022-10-13T13:26:57.708Z,6.53
2022-10-13T13:29:44.613Z,7.95
2022-10-13T13:32:31.040Z,7.07
2022-10-13T13:35:17.369Z,7.28
2022-10-13T13:38:04.482Z,7.43
2022-10-13T13:40:50.654Z,7.45
2022-10-13T13:43:36.525Z,7.37
2022-10-13T13:46:25.408Z,7.18
2022-10-13T13:49:12.284Z,7.72
2022-10-13T13:51:58.173Z,7.03
2022-10-13T13:54:45.118Z,7.82
2022-10-13T13:57:31.233Z,6.90
2022-10-13T14:00:20.768Z,7.37
2022-10-13T14:03:18.556Z,7.78
2022-10-13T14:06:05.476Z,6.85
2022-10-13T14:08:51.458Z,7.00
2022-10-13T14:11:37.434Z,6.80
2022-10-13T14:14:23.389Z,7.47
2022-10-13T14:17:09.426Z,6.90
2022-10-13T14:19:55.698Z,6.35
2022-10-13T14:22:41.601Z,6.95
2022-10-13T14:25:27.550Z,7.07
2022-10-13T14:28:18.001Z,6.70
2022-10-13T14:31:06.126Z,7.35
2022-10-13T14:33:54.651Z,6.57
2022-10-13T14:36:42.779Z,11.70
2022-10-13T14:39:28.762Z,7.20
2022-10-13T14:42:14.702Z,7.67
2022-10-13T14:45:02.724Z,7.00
2022-10-13T14:47:51.609Z,6.47
2022-10-13T14:50:38.139Z,6.55
2022-10-13T14:53:26.857Z,6.28
2022-10-13T14:56:31.535Z,7.38
2022-10-13T14:59:18.552Z,6.68
2022-10-13T15:02:05.887Z,6.18
2022-10-13T15:04:52.096Z,6.43
2022-10-13T15:07:41.129Z,6.65
2022-10-13T15:10:27.586Z,7.25
2022-10-13T15:13:13.497Z,6.73
2022-10-13T15:16:01.193Z,6.10
2022-10-13T15:18:47.723Z,6.63
2022-10-13T15:21:33.904Z,6.05
2022-10-13T15:24:20.855Z,6.97
2022-10-13T15:27:12.075Z,6.10
2022-10-13T15:29:58.154Z,5.90
2022-10-13T15:32:43.977Z,6.13
2022-10-13T15:35:31.241Z,5.60
2022-10-13T15:38:19.198Z,5.22
2022-10-13T15:41:06.893Z,5.43
2022-10-13T15:43:53.108Z,5.70
2022-10-13T15:46:49.156Z,5.78
2022-10-13T15:49:45.492Z,5.90
2022-10-13T15:52:34.905Z,6.57
2022-10-13T15:55:21.610Z,6.03
2022-10-13T15:58:11.339Z,5.43
2022-10-13T16:00:59.551Z,8.02
2022-10-13T16:03:45.475Z,5.40
2022-10-13T16:06:33.474Z,6.43
2022-10-13T16:09:19.433Z,5.63
2022-10-13T16:12:05.433Z,6.10
2022-10-13T16:14:52.155Z,6.32
2022-10-13T16:20:24.637Z,6.45
2022-10-13T16:23:10.553Z,6.90
2022-10-13T16:25:56.567Z,5.97
2022-10-13T16:28:45.401Z,7.47
2022-10-13T16:31:31.589Z,7.55
2022-10-13T16:34:17.672Z,7.85
2022-10-13T16:37:03.665Z,8.10
2022-10-13T16:39:51.866Z,7.68
2022-10-13T16:42:38.221Z,8.10
2022-10-13T16:45:41.263Z,9.50
2022-10-13T16:48:32.137Z,8.27
2022-10-13T16:51:20.837Z,8.70
2022-10-13T16:54:06.790Z,7.20
2022-10-13T16:56:52.730Z,8.07
2022-10-13T16:59:38.793Z,7.35
2022-10-13T17:02:24.710Z,7.27
2022-10-13T17:05:10.577Z,8.13
2022-10-13T17:07:56.628Z,7.68
2022-10-13T17:10:42.512Z,8.00
2022-10-13T17:13:28.567Z,7.73
2022-10-13T17:16:15.605Z,8.95
2022-10-13T17:19:04.116Z,7.85
2022-10-13T17:21:54.733Z,7.43
2022-10-13T17:24:47.775Z,7.20
2022-10-13T17:27:37.287Z,7.65
2022-10-13T17:30:23.290Z,6.47
2022-10-13T17:33:12.150Z,7.72
2022-10-13T17:36:00.278Z,7.25
2022-10-13T17:38:47.514Z,7.70
2022-10-13T17:41:33.586Z,6.78
2022-10-13T17:44:20.915Z,6.97
2022-10-13T17:47:07.155Z,7.30
2022-10-13T17:49:55.814Z,6.57
2022-10-13T17:52:42.453Z,7.68
2022-10-13T17:55:28.484Z,7.73
2022-10-13T17:58:14.708Z,9.50
2022-10-13T18:01:12.934Z,8.20
2022-10-13T18:04:06.360Z,9.15
2022-10-13T18:06:53.193Z,8.23
2022-10-13T18:09:39.166Z,8.45
2022-10-13T18:12:25.062Z,7.90
2022-10-13T18:15:11.280Z,8.23
2022-10-13T18:17:57.249Z,8.23
2022-10-13T18:20:43.574Z,7.70
2022-10-13T18:23:31.624Z,8.57
2022-10-13T18:26:19.395Z,9.07
2022-10-13T18:29:07.926Z,8.90
2022-10-13T18:31:56.406Z,8.77
2022-10-13T18:34:42.382Z,8.48
2022-10-13T18:37:28.511Z,10.57
2022-10-13T18:40:14.585Z,8.65
2022-10-13T18:43:02.786Z,8.68
2022-10-13T18:45:48.794Z,8.93
2022-10-13T18:48:35.006Z,8.75
2022-10-13T18:51:21.347Z,9.02
2022-10-13T18:54:07.804Z,9.02
2022-10-13T18:56:54.006Z,9.30
2022-10-13T18:59:40.073Z,9.07
2022-10-13T19:02:26.096Z,9.70
2022-10-13T19:05:12.339Z,8.55
2022-10-13T19:07:58.389Z,8.77
2022-10-13T19:10:44.344Z,8.10
2022-10-13T19:13:30.259Z,7.63
2022-10-13T19:16:19.209Z,8.93
2022-10-13T19:19:07.968Z,8.63
2022-10-13T19:21:54.492Z,8.23
2022-10-13T19:24:40.506Z,7.70
2022-10-13T19:27:27.471Z,8.15
2022-10-13T19:30:14.342Z,8.88
2022-10-13T19:33:00.881Z,9.05
2022-10-13T19:35:54.054Z,9.43
2022-10-13T19:38:40.294Z,9.63
2022-10-13T19:41:29.657Z,8.93
2022-10-13T19:44:17.712Z,8.70
2022-10-13T19:47:04.043Z,8.90
2022-10-13T19:49:50.142Z,9.85
2022-10-13T19:52:36.140Z,9.67
2022-10-13T19:55:22.380Z,9.40
2022-10-13T20:00:55.222Z,9.23
2022-10-13T20:03:41.760Z,9.57
2022-10-13T20:06:27.671Z,9.57
2022-10-13T20:09:13.754Z,9.83
2022-10-13T20:11:59.924Z,10.10
2022-10-13T20:14:45.866Z,10.00
2022-10-13T20:17:31.861Z,10.57
2022-10-13T20:20:22.236Z,9.90
2022-10-13T20:23:09.226Z,9.32
2022-10-13T20:26:05.814Z,10.52
2022-10-13T20:28:54.566Z,9.75
2022-10-13T20:31:40.637Z,10.27
2022-10-13T20:34:27.103Z,9.60
2022-10-13T20:37:13.046Z,10.17
2022-10-13T20:39:59.052Z,10.77
2022-10-13T20:42:50.719Z,9.60
2022-10-13T20:45:36.877Z,10.52
2022-10-13T20:48:22.665Z,11.10
2022-10-13T20:51:12.494Z,9.85
2022-10-13T20:53:58.458Z,11.00
2022-10-13T20:56:44.383Z,11.50
2022-10-13T20:59:30.404Z,11.13
2022-10-13T21:02:17.065Z,11.23
2022-10-13T21:05:03.277Z,10.32
2022-10-13T21:07:49.235Z,10.73
2022-10-13T21:10:36.995Z,10.90
2022-10-13T21:13:23.186Z,10.43
2022-10-13T21:16:11.487Z,11.18
2022-10-13T21:18:58.358Z,11.20
2022-10-13T21:21:44.399Z,10.48
2022-10-13T21:24:30.342Z,10.95
2022-10-13T21:27:16.675Z,9.57
2022-10-13T21:30:03.906Z,10.38
2022-10-13T21:32:50.766Z,10.65
2022-10-13T21:35:36.876Z,10.82
2022-10-13T21:38:23.196Z,11.33
2022-10-13T21:41:11.423Z,10.18
2022-10-13T21:43:57.953Z,10.55
2022-10-13T21:46:49.111Z,10.13
2022-10-13T21:49:35.069Z,10.03
2022-10-13T21:52:21.184Z,9.48
2022-10-13T21:55:07.821Z,10.15
2022-10-13T21:57:53.825Z,10.05
2022-10-13T22:00:40.568Z,10.45
2022-10-13T22:06:19.184Z,10.52
2022-10-13T22:09:06.587Z,10.20
2022-10-13T22:11:56.372Z,10.18
2022-10-13T22:14:42.402Z,10.77
2022-10-13T22:17:28.270Z,10.77
2022-10-13T22:20:14.225Z,10.47
2022-10-13T22:23:00.361Z,12.65
2022-10-13T22:25:47.349Z,12.77
2022-10-13T22:28:37.036Z,13.23
2022-10-13T22:31:23.997Z,9.52
2022-10-13T22:34:10.918Z,8.68
2022-10-13T22:36:57.177Z,7.97
2022-10-13T22:39:43.267Z,9.10
2022-10-13T22:42:29.426Z,8.65
2022-10-13T22:45:15.378Z,9.40
2022-10-13T22:48:02.178Z,9.70
2022-10-13T22:50:48.271Z,8.93
2022-10-13T22:53:34.370Z,8.80
2022-10-13T22:56:22.753Z,9.13
2022-10-13T22:59:09.335Z,8.80
2022-10-13T23:04:41.356Z,8.30
2022-10-13T23:07:29.485Z,7.57
2022-10-13T23:10:15.593Z,7.28
2022-10-13T23:13:01.580Z,6.95
2022-10-13T23:15:47.536Z,7.35
2022-10-13T23:18:33.548Z,6.65
2022-10-13T23:21:21.416Z,5.75
2022-10-13T23:24:08.175Z,5.55
2022-10-13T23:27:00.254Z,5.05
2022-10-13T23:29:46.474Z,5.10
2022-10-13T23:32:32.710Z,4.95
2022-10-13T23:35:18.705Z,4.97
2022-10-13T23:38:04.736Z,3.45
2022-10-13T23:40:54.636Z,4.38
2022-10-13T23:43:42.242Z,3.97
2022-10-13T23:46:28.342Z,4.30
2022-10-13T23:49:14.617Z,4.22
2022-10-13T23:52:00.585Z,4.15
2022-10-13T23:54:46.552Z,3.65
2022-10-13T23:57:32.484Z,4.20
